Time;durP1;ratioP1;P1;durP2;ratioP2;P2;SDS_P1;SDS_P2;PMS_P1;PMS_P2;Temp;Humidity;BMP_temperature;BMP_pressure;BME280_temperature;BME280_humidity;BME280_pressure;Samples;Min_cycle;Max_cycle;Signal;HPM_P1;HPM_P2
2021/10/08 00:00:17;;;;;;;;;15.00;14.00;;;;;13.28;68.96;102520.00;4948737;28;45324;-79
2021/10/08 00:02:42;;;;;;;;;17.00;14.00;;;;;13.22;69.05;102506.59;4978995;28;45503;-78
2021/10/08 00:05:08;;;;;;;;;17.67;11.33;;;;;13.26;68.85;102521.69;5015514;28;46571;-79
2021/10/08 00:07:34;;;;;;;;;17.33;14.00;;;;;13.23;69.31;102513.69;4916148;28;45253;-79
2021/10/08 00:10:00;;;;;;;;;12.00;12.00;;;;;13.23;68.87;102517.22;4966363;28;45706;-79
2021/10/08 00:12:25;;;;;;;;;16.00;12.00;;;;;13.22;69.13;102511.88;4986980;28;45541;-79
2021/10/08 00:14:50;;;;;;;;;12.00;12.00;;;;;13.18;69.07;102521.47;4975723;28;60108;-80
2021/10/08 00:17:16;;;;;;;;;14.00;14.00;;;;;13.13;69.17;102506.28;5015299;28;50828;-79
2021/10/08 00:19:41;;;;;;;;;14.67;12.00;;;;;13.16;69.13;102517.88;5017675;28;52872;-80
2021/10/08 00:22:06;;;;;;;;;13.00;12.00;;;;;13.14;68.99;102516.03;5018536;28;52616;-80
2021/10/08 00:24:32;;;;;;;;;19.00;14.00;;;;;13.13;69.11;102524.84;4921543;28;60490;-79
2021/10/08 00:26:57;;;;;;;;;15.33;14.00;;;;;13.10;68.97;102533.59;5017742;28;60538;-80
2021/10/08 00:29:23;;;;;;;;;13.67;12.00;;;;;13.08;68.95;102527.38;5018405;28;55320;-79
2021/10/08 00:31:48;;;;;;;;;16.67;13.00;;;;;13.06;69.34;102521.13;5017418;28;51084;-79
2021/10/08 00:34:13;;;;;;;;;14.67;13.00;;;;;13.00;69.29;102520.97;4932046;28;57841;-80
2021/10/08 00:36:39;;;;;;;;;23.33;17.33;;;;;13.05;69.50;102529.97;5015546;28;57461;-81
2021/10/08 00:39:04;;;;;;;;;14.67;13.33;;;;;13.04;69.40;102533.44;4918688;28;45483;-82
2021/10/08 00:41:30;;;;;;;;;24.00;18.00;;;;;13.03;69.42;102536.94;5024352;28;45466;-79
2021/10/08 00:43:55;;;;;;;;;18.00;16.33;;;;;13.01;69.62;102533.38;4965595;28;58601;-79
2021/10/08 00:46:21;;;;;;;;;20.00;18.00;;;;;13.01;69.33;102533.38;5004376;28;45248;-80
2021/10/08 00:48:50;;;;;;;;;18.00;17.00;;;;;13.01;69.58;102536.91;5019004;28;45506;-81
2021/10/08 00:51:16;;;;;;;;;20.00;16.00;;;;;13.01;69.72;102530.72;5018847;28;45561;-78
2021/10/08 00:53:41;;;;;;;;;23.00;16.33;;;;;13.01;69.61;102538.69;4976282;28;47485;-79
2021/10/08 00:56:07;;;;;;;;;20.67;18.00;;;;;13.01;69.91;102534.25;4990673;28;60612;-78
2021/10/08 00:58:32;;;;;;;;;23.33;19.00;;;;;12.99;69.60;102530.66;4919521;28;45261;-79
2021/10/08 01:00:57;;;;;;;;;20.00;18.33;;;;;12.99;69.49;102541.25;4946128;28;45511;-79
2021/10/08 01:03:23;;;;;;;;;20.00;18.00;;;;;12.99;69.94;102535.94;5002394;28;63330;-79
2021/10/08 01:05:48;;;;;;;;;20.67;19.00;;;;;12.99;69.92;102535.94;5014661;28;45401;-79
2021/10/08 01:08:14;;;;;;;;;25.67;19.00;;;;;12.98;69.98;102536.81;4955488;28;45387;-78
2021/10/08 01:10:40;;;;;;;;;28.00;20.00;;;;;12.97;69.58;102532.38;4918794;28;45214;-79
2021/10/08 01:13:06;;;;;;;;;22.67;20.33;;;;;12.92;69.61;102525.16;5017615;28;45380;-79
2021/10/08 01:15:32;;;;;;;;;22.33;19.00;;;;;12.95;69.75;102528.78;4977999;28;45411;-79
2021/10/08 01:17:57;;;;;;;;;20.67;19.33;;;;;12.94;69.81;102526.97;4990892;28;52127;-79
2021/10/08 01:20:22;;;;;;;;;23.33;19.33;;;;;12.89;69.68;102528.63;4950539;28;45577;-78
2021/10/08 01:22:48;;;;;;;;;20.25;19.50;;;;;12.91;69.52;102523.34;5018182;28;46585;-79
2021/10/08 01:25:13;;;;;;;;;18.67;18.33;;;;;12.84;69.95;102517.88;5018095;28;45170;-80
2021/10/08 01:27:40;;;;;;;;;19.00;18.33;;;;;12.86;69.83;102517.91;4950215;28;45325;-79
2021/10/08 01:30:07;;;;;;;;;20.00;14.75;;;;;12.89;70.12;102527.69;4947650;28;45450;-80
2021/10/08 01:32:33;;;;;;;;;21.33;21.00;;;;;12.85;69.76;102517.03;4997626;28;47182;-79
2021/10/08 01:34:59;;;;;;;;;33.67;24.00;;;;;12.88;69.83;102524.16;4947768;28;53359;-79
2021/10/08 01:37:24;;;;;;;;;22.00;19.67;;;;;12.89;69.90;102527.69;4978623;28;53646;-80
2021/10/08 01:39:49;;;;;;;;;27.00;23.67;;;;;12.83;70.11;102512.50;4953711;28;54605;-79
2021/10/08 01:42:15;;;;;;;;;25.33;21.00;;;;;12.81;69.91;102516.88;5011752;28;61858;-79
2021/10/08 01:44:40;;;;;;;;;27.33;22.33;;;;;12.83;69.70;102526.66;4950128;28;45370;-79
2021/10/08 01:47:06;;;;;;;;;20.00;20.00;;;;;12.81;69.91;102511.59;4962971;28;45373;-79
2021/10/08 01:49:31;;;;;;;;;22.75;17.75;;;;;12.76;69.88;102506.16;4945484;28;45446;-79
2021/10/08 01:51:58;;;;;;;;;25.75;23.50;;;;;12.81;69.96;102524.84;4996808;28;46620;-81
2021/10/08 01:54:23;;;;;;;;;19.75;17.50;;;;;12.81;69.96;102522.19;4959482;28;45249;-79
2021/10/08 01:56:48;;;;;;;;;20.75;19.00;;;;;12.80;69.73;102531.00;4997685;28;55969;-78
2021/10/08 01:59:14;;;;;;;;;20.00;19.00;;;;;12.76;69.95;102527.34;4983101;28;50374;-80
2021/10/08 02:01:40;;;;;;;;;19.00;17.67;;;;;12.76;69.94;102530.00;4948476;28;47290;-80
2021/10/08 02:04:05;;;;;;;;;20.50;18.75;;;;;12.76;69.70;102530.00;5017481;28;45305;-79
2021/10/08 02:06:31;;;;;;;;;20.67;17.00;;;;;12.75;69.88;102528.22;5017237;28;45250;-79
2021/10/08 02:08:56;;;;;;;;;19.00;17.75;;;;;12.72;69.87;102528.09;4996765;28;53083;-79
2021/10/08 02:11:22;;;;;;;;;25.67;21.00;;;;;12.73;69.89;102534.31;4970587;28;49537;-79
2021/10/08 02:13:47;;;;;;;;;22.00;21.75;;;;;12.69;69.97;102519.19;4974722;28;58542;-80
2021/10/08 02:16:13;;;;;;;;;20.25;19.75;;;;;12.71;70.42;102528.97;4990738;28;45390;-80
2021/10/08 02:18:38;;;;;;;;;21.50;18.25;;;;;12.72;69.96;102530.75;5010694;28;54085;-79
2021/10/08 02:21:03;;;;;;;;;20.50;18.50;;;;;12.71;70.14;102523.66;4954401;28;62605;-78
2021/10/08 02:23:29;;;;;;;;;20.00;20.00;;;;;12.70;69.95;102529.81;4965907;28;53312;-79
2021/10/08 02:25:54;;;;;;;;;24.75;21.75;;;;;12.70;70.12;102523.63;5017142;28;45456;-80
2021/10/08 02:28:20;;;;;;;;;21.75;19.75;;;;;12.61;70.06;102518.94;4993605;28;53028;-79
2021/10/08 02:30:45;;;;;;;;;24.25;20.25;;;;;12.62;70.10;102525.13;4949295;28;58615;-79
2021/10/08 02:33:10;;;;;;;;;22.00;19.00;;;;;12.66;70.37;102525.28;4969915;28;60807;-79
2021/10/08 02:35:36;;;;;;;;;21.00;19.25;;;;;12.62;70.42;102514.53;4924691;28;52261;-80
2021/10/08 02:38:01;;;;;;;;;17.75;16.75;;;;;12.64;70.41;102521.69;4999162;28;45514;-81
2021/10/08 02:40:27;;;;;;;;;19.67;17.33;;;;;12.62;70.18;102518.09;4939349;28;46524;-80
2021/10/08 02:42:52;;;;;;;;;16.67;16.67;;;;;12.58;70.43;102511.81;5016386;28;52250;-80
2021/10/08 02:45:17;;;;;;;;;21.67;17.33;;;;;12.65;70.15;102528.78;5015992;28;55564;-81
2021/10/08 02:47:43;;;;;;;;;25.00;18.67;;;;;12.62;70.19;102522.50;4944079;28;45280;-80
2021/10/08 02:50:08;;;;;;;;;21.33;18.00;;;;;12.58;70.23;102519.78;4934755;28;62454;-79
2021/10/08 02:52:34;;;;;;;;;21.25;19.50;;;;;12.51;70.44;102508.91;5014153;28;45277;-79
2021/10/08 02:54:59;;;;;;;;;15.67;14.33;;;;;12.58;70.43;102525.06;5016585;28;57418;-81
2021/10/08 02:57:25;;;;;;;;;17.75;17.75;;;;;12.58;70.22;102526.81;4992816;28;45335;-79
2021/10/08 02:59:50;;;;;;;;;23.00;19.00;;;;;12.57;70.53;102517.97;4964414;28;61277;-81
2021/10/08 03:02:15;;;;;;;;;19.00;16.33;;;;;12.52;70.08;102511.63;4956998;28;56730;-80
2021/10/08 03:04:42;;;;;;;;;21.00;17.33;;;;;12.58;70.54;102529.47;5016811;28;45171;-78
2021/10/08 03:07:08;;;;;;;;;16.67;16.67;;;;;12.54;70.13;102514.31;5016843;28;45616;-80
2021/10/08 03:09:33;;;;;;;;;17.00;16.00;;;;;12.53;70.26;102521.38;4948038;28;47615;-80
2021/10/08 03:11:58;;;;;;;;;23.00;19.33;;;;;12.50;70.23;102521.28;5016001;28;62565;-79
2021/10/08 03:14:24;;;;;;;;;22.33;18.00;;;;;12.49;70.12;102513.28;4975773;28;52241;-79
2021/10/08 03:16:49;;;;;;;;;18.00;17.00;;;;;12.47;70.06;102512.34;4924579;28;45344;-81
2021/10/08 03:19:15;;;;;;;;;19.67;14.33;;;;;12.44;70.21;102518.44;4956119;28;49656;-81
2021/10/08 03:21:40;;;;;;;;;18.00;15.33;;;;;12.43;70.09;102524.59;5007376;28;59078;-79
2021/10/08 03:24:06;;;;;;;;;17.67;17.00;;;;;12.40;70.09;102516.53;4952807;28;56467;-79
2021/10/08 03:26:31;;;;;;;;;24.67;20.00;;;;;12.36;70.14;102519.06;4982691;28;45356;-79
2021/10/08 03:28:57;;;;;;;;;25.33;18.00;;;;;12.37;69.97;102520.88;4929196;28;45642;-80
2021/10/08 03:31:22;;;;;;;;;21.33;17.33;;;;;12.35;69.99;102523.44;4993650;28;60443;-79
2021/10/08 03:33:47;;;;;;;;;19.00;18.00;;;;;12.29;69.90;102510.03;4957655;28;52837;-79
2021/10/08 03:36:42;;;;;;;;;21.00;21.00;;;;;12.32;69.88;102518.06;4992548;28;55995;-80
2021/10/08 03:38:58;;;;;;;;;23.00;21.67;;;;;12.29;70.17;102521.50;4970624;28;46398;-79
2021/10/08 03:41:24;;;;;;;;;17.67;15.00;;;;;12.27;70.00;102517.94;4973022;28;45374;-79
2021/10/08 03:43:53;;;;;;;;;18.50;17.00;;;;;12.24;70.11;102522.22;4969331;28;45530;-80
2021/10/08 03:46:19;;;;;;;;;17.50;16.00;;;;;12.19;70.23;102518.53;5016053;28;45636;-79
2021/10/08 03:51:25;;;;;;;;;19.33;18.00;;;;;12.21;70.42;102523.03;4993406;28;45462;-79
2021/10/08 03:53:51;;;;;;;;;18.00;18.00;;;;;12.21;70.49;102524.78;5017369;28;45341;-81
2021/10/08 03:56:16;;;;;;;;;21.67;17.00;;;;;12.22;70.27;102527.47;5010469;28;53931;-81
2021/10/08 03:58:42;;;;;;;;;26.33;16.67;;;;;12.20;70.31;102521.25;4931743;28;45521;-79
2021/10/08 04:01:07;;;;;;;;;18.33;18.00;;;;;12.18;70.28;102522.94;4970042;28;45353;-78
2021/10/08 04:03:32;;;;;;;;;17.67;15.67;;;;;12.15;70.41;102520.22;5015477;28;58564;-80
2021/10/08 04:05:58;;;;;;;;;22.00;17.75;;;;;12.15;70.18;102533.44;5019240;28;55115;-79
2021/10/08 04:08:23;;;;;;;;;18.33;17.67;;;;;12.07;70.43;102519.94;5001821;28;45591;-79
2021/10/08 04:10:48;;;;;;;;;23.00;19.00;;;;;12.13;70.30;102532.47;4932364;28;48969;-79
2021/10/08 04:13:14;;;;;;;;;18.33;15.33;;;;;12.08;70.18;102523.50;4958623;28;45300;-79
2021/10/08 04:15:39;;;;;;;;;16.00;15.00;;;;;12.10;70.39;102531.50;4982329;28;50890;-81
2021/10/08 04:18:05;;;;;;;;;18.33;16.00;;;;;12.07;70.33;102527.88;5018390;28;60540;-80
2021/10/08 04:20:30;;;;;;;;;18.00;18.00;;;;;12.09;70.19;102532.31;4966677;28;45296;-79
2021/10/08 04:22:55;;;;;;;;;22.75;18.00;;;;;12.09;70.56;102534.97;4991252;28;45388;-79
2021/10/08 04:25:21;;;;;;;;;19.00;18.00;;;;;12.09;70.72;102538.56;4980428;28;45537;-78
2021/10/08 04:27:46;;;;;;;;;24.25;16.50;;;;;12.10;70.80;102532.41;4975092;28;56037;-79
2021/10/08 04:30:12;;;;;;;;;18.25;17.00;;;;;12.11;70.70;102542.13;4952543;28;57388;-79
2021/10/08 04:32:37;;;;;;;;;17.00;15.33;;;;;12.10;70.58;102542.09;4996544;28;55452;-79
2021/10/08 04:35:03;;;;;;;;;19.00;16.75;;;;;12.04;70.75;102541.06;4968971;28;46771;-84
2021/10/08 04:37:28;;;;;;;;;19.50;19.50;;;;;12.07;70.77;102541.13;4932336;28;46801;-83
2021/10/08 04:39:53;;;;;;;;;20.25;16.50;;;;;12.07;70.57;102541.13;4902831;28;60658;-82
2021/10/08 04:42:19;;;;;;;;;22.00;17.33;;;;;12.03;70.40;102535.69;4933432;28;49237;-83
2021/10/08 04:44:45;;;;;;;;;18.33;17.67;;;;;12.06;70.67;102536.69;4970869;28;53061;-85
2021/10/08 04:47:12;;;;;;;;;20.75;19.00;;;;;12.03;70.64;102533.03;5018065;28;47693;-83
2021/10/08 04:49:37;;;;;;;;;22.00;19.25;;;;;12.01;70.70;102526.81;4933242;28;45489;-83
2021/10/08 04:52:03;;;;;;;;;19.33;18.33;;;;;12.07;70.83;102542.88;5018181;28;45422;-82
2021/10/08 04:54:28;;;;;;;;;27.00;17.00;;;;;12.07;70.79;102537.59;4927317;28;45483;-83
2021/10/08 04:56:54;;;;;;;;;24.75;17.25;;;;;12.06;70.74;102541.09;4956940;28;47543;-80
2021/10/08 04:59:19;;;;;;;;;19.00;16.67;;;;;12.05;70.82;102540.19;4920186;28;45482;-81
2021/10/08 05:01:45;;;;;;;;;23.50;18.75;;;;;12.04;70.58;102543.69;4924364;28;57302;-82
2021/10/08 05:04:10;;;;;;;;;21.00;16.50;;;;;12.01;70.72;102540.94;4929980;28;52418;-78
2021/10/08 05:06:35;;;;;;;;;22.50;19.50;;;;;12.00;70.86;102541.78;4959733;28;61440;-78
2021/10/08 05:09:01;;;;;;;;;23.50;21.00;;;;;11.99;70.97;102547.94;4957945;28;50650;-78
2021/10/08 05:11:26;;;;;;;;;26.00;17.67;;;;;12.00;70.97;102540.91;4917862;28;45671;-80
2021/10/08 05:13:51;;;;;;;;;24.00;21.00;;;;;11.99;70.65;102542.66;4958013;28;45587;-80
2021/10/08 05:16:17;;;;;;;;;24.67;18.33;;;;;12.00;70.55;102552.38;4926098;28;56268;-80
2021/10/08 05:18:42;;;;;;;;;21.75;18.75;;;;;11.98;70.89;102543.47;4926962;28;45468;-79
2021/10/08 05:21:08;;;;;;;;;19.00;17.67;;;;;11.99;70.81;102550.59;4926036;28;45501;-82
2021/10/08 05:23:34;;;;;;;;;29.00;22.00;;;;;11.99;70.75;102547.94;4990674;28;45363;-80
2021/10/08 05:25:59;;;;;;;;;20.75;20.75;;;;;11.98;70.67;102546.13;5017918;28;46166;-82
2021/10/08 05:28:26;;;;;;;;;9.75;9.50;;;;;11.98;70.69;102553.16;4956473;28;45497;-80
2021/10/08 05:30:52;;;;;;;;;21.75;19.00;;;;;11.96;70.59;102560.16;4918816;28;45425;-78
2021/10/08 05:33:18;;;;;;;;;21.00;21.00;;;;;11.94;70.53;102556.59;4991984;28;45294;-78
2021/10/08 05:35:43;;;;;;;;;23.00;20.75;;;;;11.88;70.58;102543.13;4950938;28;60597;-79
2021/10/08 05:38:08;;;;;;;;;22.25;19.25;;;;;11.86;70.61;102550.13;4977347;28;51969;-78
2021/10/08 05:40:34;;;;;;;;;22.00;20.00;;;;;11.89;70.58;102558.19;4973240;28;45426;-77
2021/10/08 05:43:01;;;;;;;;;24.75;19.25;;;;;11.88;70.59;102556.34;4970639;28;45272;-78
2021/10/08 05:45:26;;;;;;;;;19.75;19.50;;;;;11.87;70.69;102557.19;4990156;28;45621;-77
2021/10/08 05:47:52;;;;;;;;;29.50;22.75;;;;;11.86;70.75;102560.72;5003867;28;45822;-77
2021/10/08 05:50:17;;;;;;;;;20.75;18.00;;;;;11.85;70.81;102557.16;4952106;28;56122;-77
2021/10/08 05:52:42;;;;;;;;;25.00;19.25;;;;;11.81;70.73;102555.22;4922001;28;52035;-78
2021/10/08 05:55:08;;;;;;;;;22.75;18.75;;;;;11.82;70.68;102549.09;4984732;28;48045;-77
2021/10/08 05:57:33;;;;;;;;;27.50;21.00;;;;;11.82;70.80;102562.34;4919792;28;59818;-77
2021/10/08 05:59:59;;;;;;;;;25.00;19.25;;;;;11.75;70.82;102555.91;4926106;28;54882;-80
2021/10/08 06:02:24;;;;;;;;;23.75;18.00;;;;;11.83;70.89;102568.56;4911597;28;45181;-79
2021/10/08 06:04:50;;;;;;;;;28.00;21.00;;;;;11.83;71.05;102565.91;4990410;28;47417;-77
2021/10/08 06:07:15;;;;;;;;;27.50;23.00;;;;;11.83;70.84;102556.22;4932075;28;45485;-77
2021/10/08 06:09:45;;;;;;;;;29.25;27.00;;;;;11.83;70.99;102564.16;4916483;28;50780;-79
2021/10/08 06:12:11;;;;;;;;;30.25;25.00;;;;;11.81;71.06;102555.22;4932890;28;45375;-79
2021/10/08 06:14:37;;;;;;;;;28.75;25.50;;;;;11.87;71.06;102573.97;4933535;28;46508;-80
2021/10/08 06:17:02;;;;;;;;;23.00;23.00;;;;;11.84;70.91;102568.59;4926526;28;54912;-79
2021/10/08 06:19:28;;;;;;;;;33.00;28.00;;;;;11.89;70.92;102576.69;4916401;28;45563;-81
2021/10/08 06:21:53;;;;;;;;;33.00;28.25;;;;;11.88;70.78;102575.81;4924098;28;45494;-81
2021/10/08 06:24:18;;;;;;;;;35.00;26.50;;;;;11.88;70.93;102583.75;4922933;28;52376;-80
2021/10/08 06:26:44;;;;;;;;;27.25;25.00;;;;;11.89;70.85;102588.19;4912023;28;56186;-82
2021/10/08 06:29:09;;;;;;;;;31.00;22.25;;;;;11.89;70.82;102584.66;4926592;28;57277;-78
2021/10/08 06:31:34;;;;;;;;;34.25;31.00;;;;;11.90;70.90;102582.03;4919359;28;51889;-78
2021/10/08 06:34:00;;;;;;;;;30.75;25.00;;;;;11.94;70.93;102578.66;4930970;28;57934;-81
2021/10/08 06:36:25;;;;;;;;;32.00;27.25;;;;;11.97;70.98;102584.03;4949034;28;48602;-78
2021/10/08 06:38:51;;;;;;;;;24.00;22.00;;;;;11.93;70.96;102582.16;4981200;28;54728;-81
2021/10/08 06:41:16;;;;;;;;;27.25;24.50;;;;;11.98;71.08;102579.63;4919314;28;53797;-80
2021/10/08 06:43:42;;;;;;;;;47.75;37.00;;;;;12.00;71.01;102584.16;4949283;28;45749;-77
2021/10/08 06:46:07;;;;;;;;;41.25;32.00;;;;;12.03;70.92;102583.34;4917119;28;55996;-80
2021/10/08 06:48:32;;;;;;;;;26.25;22.75;;;;;12.03;70.90;102585.97;4899476;28;45691;-78
2021/10/08 06:50:58;;;;;;;;;26.75;24.25;;;;;12.03;71.13;102584.22;4938387;28;45562;-77
2021/10/08 06:53:24;;;;;;;;;24.00;23.75;;;;;12.05;71.04;102587.84;4924028;28;60356;-79
2021/10/08 06:55:49;;;;;;;;;28.00;25.75;;;;;12.07;71.22;102588.78;4924141;28;45496;-77
2021/10/08 06:58:14;;;;;;;;;28.75;24.25;;;;;12.07;71.15;102587.88;4919270;28;45653;-77
2021/10/08 07:00:40;;;;;;;;;29.00;23.50;;;;;12.14;71.24;102588.97;4974972;28;45481;-77
2021/10/08 07:03:05;;;;;;;;;23.25;21.25;;;;;12.14;71.14;102588.97;4914103;28;58868;-78
2021/10/08 07:05:31;;;;;;;;;28.00;23.75;;;;;12.20;71.10;102599.81;4950735;28;56452;-80
2021/10/08 07:07:56;;;;;;;;;27.25;23.50;;;;;12.20;71.15;102591.84;4983583;28;51328;-81
2021/10/08 07:10:21;;;;;;;;;29.50;23.25;;;;;12.17;71.16;102591.75;5010672;28;50441;-80
2021/10/08 07:12:47;;;;;;;;;24.50;22.75;;;;;12.22;71.35;102599.00;4985797;28;46271;-77
2021/10/08 07:15:19;;;;;;;;;30.00;24.00;;;;;12.29;71.21;102600.06;4995242;28;57050;-80
2021/10/08 07:17:50;;;;;;;;;26.25;23.75;;;;;12.30;71.34;102600.16;5027396;28;45422;-77
2021/10/08 07:20:23;;;;;;;;;32.50;29.25;;;;;12.35;71.27;102600.28;5006462;28;45486;-79
2021/10/08 07:22:48;;;;;;;;;26.25;24.00;;;;;12.36;71.23;102603.81;4984290;28;47444;-77
2021/10/08 07:25:14;;;;;;;;;33.75;27.50;;;;;12.39;71.40;102604.81;5012420;28;45298;-77
2021/10/08 07:27:40;;;;;;;;;29.00;25.50;;;;;12.42;71.33;102606.69;4976161;28;53040;-81
2021/10/08 07:32:41;;;;;;;;;31.00;29.50;;;;;12.47;71.55;102610.38;5042378;22;46904;-79
2021/10/08 07:35:07;;;;;;;;;32.50;31.25;;;;;12.50;71.43;102615.75;4968458;28;45460;-77
2021/10/08 07:37:33;;;;;;;;;37.00;29.50;;;;;12.52;71.71;102607.03;4976539;28;45300;-83
2021/10/08 07:39:58;;;;;;;;;33.50;29.75;;;;;12.53;71.38;102599.97;5000830;28;45502;-77
2021/10/08 07:42:24;;;;;;;;;38.25;29.75;;;;;12.62;71.82;102612.59;4986408;28;46106;-79
2021/10/08 07:44:49;;;;;;;;;32.50;30.50;;;;;12.60;71.66;102604.59;5001971;28;45641;-77
2021/10/08 07:47:15;;;;;;;;;37.50;33.00;;;;;12.69;71.73;102614.59;4958282;28;53384;-77
2021/10/08 07:49:41;;;;;;;;;36.50;32.75;;;;;12.73;71.97;102613.81;4993279;28;45424;-76
2021/10/08 07:52:06;;;;;;;;;39.00;34.75;;;;;12.76;71.97;102608.63;4993387;28;45611;-78
2021/10/08 07:54:31;;;;;;;;;35.25;33.50;;;;;12.79;71.81;102608.72;5003545;28;45498;-79
2021/10/08 07:56:57;;;;;;;;;40.50;34.50;;;;;12.83;71.83;102613.25;4980070;28;45774;-80
2021/10/08 07:59:22;;;;;;;;;40.75;35.00;;;;;12.88;71.99;102602.78;4995925;28;46036;-79
2021/10/08 08:01:48;;;;;;;;;36.00;34.25;;;;;12.91;72.17;102598.47;5005838;28;54923;-83
2021/10/08 08:04:13;;;;;;;;;34.50;32.75;;;;;12.95;72.08;102611.00;4976057;28;45396;-81
2021/10/08 08:06:38;;;;;;;;;39.50;35.50;;;;;12.99;71.96;102604.91;4998895;28;55755;-81
2021/10/08 08:09:04;;;;;;;;;37.00;34.00;;;;;13.04;72.14;102608.59;5077383;28;45533;-79
2021/10/08 08:11:29;;;;;;;;;47.00;33.50;;;;;13.04;72.35;102597.97;5020203;28;49767;-81
2021/10/08 08:13:55;;;;;;;;;43.75;36.75;;;;;13.11;72.33;102609.69;5066065;28;46431;-82
2021/10/08 08:16:20;;;;;;;;;40.00;34.00;;;;;13.15;72.11;102613.31;5022333;28;45430;-81
2021/10/08 08:18:46;;;;;;;;;36.25;32.75;;;;;13.19;72.35;102609.91;5011244;28;45421;-80
2021/10/08 08:21:11;;;;;;;;;38.50;29.75;;;;;13.24;72.43;102606.56;4987801;28;60133;-80
2021/10/08 08:23:36;;;;;;;;;34.75;30.75;;;;;13.28;72.42;102608.44;4994234;28;57988;-80
2021/10/08 08:26:02;;;;;;;;;41.75;33.00;;;;;13.33;72.30;102603.28;5076267;28;53493;-81
2021/10/08 08:28:28;;;;;;;;;33.33;25.67;;;;;13.39;72.08;102600.78;4991888;28;53226;-81
2021/10/08 08:30:53;;;;;;;;;30.00;26.00;;;;;13.44;72.30;102604.47;5020420;28;47362;-79
2021/10/08 08:33:19;;;;;;;;;36.67;26.67;;;;;13.44;72.22;102593.84;4973325;28;45466;-81
2021/10/08 08:35:44;;;;;;;;;30.67;26.00;;;;;13.54;72.08;102598.56;5023605;28;55226;-81
2021/10/08 08:38:10;;;;;;;;;29.33;22.67;;;;;13.56;71.97;102591.53;5044996;28;45518;-82
2021/10/08 08:40:35;;;;;;;;;24.00;21.67;;;;;13.64;72.06;102607.66;4994897;28;52823;-79
2021/10/08 08:43:01;;;;;;;;;24.33;22.33;;;;;13.68;72.07;102608.63;5016167;28;45588;-80
2021/10/08 08:45:28;;;;;;;;;21.33;21.33;;;;;13.73;72.19;102607.00;5066418;28;45396;-80
2021/10/08 08:48:11;;;;;;;;;24.33;21.33;;;;;13.79;72.11;102599.19;5018747;28;45515;-81
2021/10/08 08:50:39;;;;;;;;;27.00;25.00;;;;;13.82;72.01;102597.53;4985248;28;46447;-78
2021/10/08 08:53:04;;;;;;;;;21.67;20.00;;;;;13.86;71.39;102593.19;5006038;28;45508;-78
2021/10/08 08:55:30;;;;;;;;;22.33;19.00;;;;;13.89;71.86;102593.25;5021990;28;54737;-77
2021/10/08 08:57:55;;;;;;;;;23.33;20.33;;;;;13.97;71.54;102601.44;4983636;28;45860;-77
2021/10/08 09:00:21;;;;;;;;;26.67;24.00;;;;;14.01;71.06;102596.25;4969414;28;62842;-79
2021/10/08 09:03:00;;;;;;;;;27.67;24.00;;;;;14.06;71.40;102591.03;4986325;28;45427;-80
2021/10/08 09:05:30;;;;;;;;;24.00;20.67;;;;;14.10;71.40;102587.59;4992222;28;45637;-81
2021/10/08 09:07:58;;;;;;;;;22.33;20.33;;;;;14.10;71.12;102580.50;4986650;28;45380;-82
2021/10/08 09:10:25;;;;;;;;;31.67;23.00;;;;;14.20;71.10;102583.41;4948068;28;46953;-82
2021/10/08 09:12:53;;;;;;;;;21.67;18.33;;;;;14.24;70.90;102580.84;4996807;28;45586;-82
2021/10/08 09:15:19;;;;;;;;;22.33;22.33;;;;;14.27;71.08;102586.22;4997690;28;45434;-82
2021/10/08 09:17:44;;;;;;;;;22.00;17.00;;;;;14.33;70.69;102582.84;5034336;28;45531;-81
2021/10/08 09:20:11;;;;;;;;;20.00;20.00;;;;;14.40;70.75;102587.44;5013432;28;46307;-84
2021/10/08 09:22:42;;;;;;;;;18.67;16.67;;;;;14.46;70.67;102576.03;5054629;28;45303;-81
2021/10/08 09:25:30;;;;;;;;;19.33;17.33;;;;;14.51;70.36;102567.34;4980389;28;45518;-83
2021/10/08 09:28:07;;;;;;;;;20.67;20.67;;;;;14.59;70.56;102575.47;5025910;28;45384;-81
2021/10/08 09:30:45;;;;;;;;;18.67;15.67;;;;;14.60;70.12;102564.91;4974682;28;47664;-82
2021/10/08 09:33:11;;;;;;;;;16.67;16.67;;;;;14.72;69.61;102571.34;5020208;28;45580;-81
2021/10/08 09:35:37;;;;;;;;;29.00;29.00;;;;;14.76;69.53;102570.56;4972910;28;46408;-79
2021/10/08 09:38:10;;;;;;;;;19.00;16.67;;;;;14.79;69.63;102570.59;5011638;28;45572;-80
2021/10/08 09:40:40;;;;;;;;;15.00;14.33;;;;;14.86;69.36;102569.88;4977786;28;45651;-81
2021/10/08 09:43:07;;;;;;;;;18.00;18.00;;;;;14.89;69.34;102572.59;4951516;28;45409;-79
2021/10/08 09:45:51;;;;;;;;;17.33;17.33;;;;;14.91;69.50;102561.16;4971694;28;45437;-79
2021/10/08 09:48:18;;;;;;;;;17.67;17.33;;;;;15.01;69.36;102571.94;5039100;28;45477;-81
2021/10/08 09:51:06;;;;;;;;;15.00;15.00;;;;;15.07;69.34;102567.66;5000628;28;48760;-79
2021/10/08 09:53:33;;;;;;;;;14.67;13.00;;;;;15.13;69.29;102559.81;4987852;28;45641;-79
2021/10/08 09:55:59;;;;;;;;;15.00;15.00;;;;;15.14;68.35;102556.28;4983755;28;45519;-78
2021/10/08 09:58:24;;;;;;;;;11.00;11.00;;;;;15.24;68.98;102561.78;5025440;28;45606;-78
2021/10/08 10:00:57;;;;;;;;;14.00;13.67;;;;;15.26;68.40;102550.28;4995657;28;46389;-78
2021/10/08 10:03:23;;;;;;;;;15.33;13.67;;;;;15.31;68.58;102551.28;4979903;28;45567;-78
2021/10/08 10:05:49;;;;;;;;;16.00;12.33;;;;;15.38;67.75;102555.84;5028237;28;45433;-75
2021/10/08 10:08:14;;;;;;;;;10.00;10.00;;;;;15.43;67.47;102558.59;5046032;28;56526;-79
2021/10/08 10:10:40;;;;;;;;;13.33;11.33;;;;;15.42;67.84;102540.84;5050105;28;47239;-79
2021/10/08 10:13:07;;;;;;;;;11.00;11.00;;;;;15.55;67.00;102556.16;5042146;28;45370;-84
2021/10/08 10:15:36;;;;;;;;;10.00;10.00;;;;;15.60;67.20;102537.59;5048918;28;45428;-82
2021/10/08 10:18:04;;;;;;;;;11.00;11.00;;;;;15.63;67.34;102538.59;5006228;28;45532;-83
2021/10/08 10:20:31;;;;;;;;;13.33;12.00;;;;;15.71;67.45;102541.38;5058721;28;47335;-81
2021/10/08 10:22:56;;;;;;;;;10.00;10.00;;;;;15.74;66.81;102540.53;5042334;28;45487;-80
2021/10/08 10:25:21;;;;;;;;;9.33;9.33;;;;;15.78;66.21;102527.31;5059278;28;50136;-83
2021/10/08 10:27:47;;;;;;;;;8.00;8.00;;;;;15.86;65.62;102527.41;5004289;28;45342;-88
2021/10/08 10:30:12;;;;;;;;;7.00;7.00;;;;;15.87;65.49;102519.47;4974792;28;59712;-88
2021/10/08 10:32:41;;;;;;;;;8.67;7.00;;;;;15.96;66.29;102527.59;5016181;28;45522;-86
2021/10/08 10:35:07;;;;;;;;;8.00;6.00;;;;;16.01;65.84;102530.34;4982936;28;45496;-84
2021/10/08 10:37:41;;;;;;;;;10.00;8.00;;;;;16.02;65.58;102524.13;4985810;28;45440;-81
2021/10/08 10:40:18;;;;;;;;;8.00;8.00;;;;;16.11;64.98;102520.72;4988633;28;47573;-83
2021/10/08 10:42:44;;;;;;;;;5.67;5.67;;;;;16.15;65.36;102512.81;5006929;28;45448;-84
2021/10/08 10:45:14;;;;;;;;;9.00;8.00;;;;;16.18;65.31;102517.25;4954003;28;45530;-83
2021/10/08 10:47:41;;;;;;;;;8.33;7.67;;;;;16.25;64.38;102521.84;4987431;28;45474;-82
2021/10/08 10:50:25;;;;;;;;;7.33;7.33;;;;;16.30;64.95;102519.22;4927881;28;46802;-82
2021/10/08 10:52:51;;;;;;;;;11.33;9.00;;;;;16.36;64.82;102522.00;5027306;28;45479;-82
2021/10/08 10:55:17;;;;;;;;;29.67;24.00;;;;;16.39;64.93;102522.91;5040069;28;45346;-81
2021/10/08 10:57:50;;;;;;;;;5.67;5.33;;;;;16.46;64.25;102521.25;5018851;28;45515;-81
2021/10/08 11:00:30;;;;;;;;;8.33;7.00;;;;;16.47;63.52;102512.38;5075905;28;46606;-82
2021/10/08 11:03:05;;;;;;;;;14.00;10.00;;;;;16.56;63.79;102525.78;5033878;28;45425;-82
2021/10/08 11:05:32;;;;;;;;;6.67;6.67;;;;;16.58;64.00;102510.72;5046513;28;46441;-82
2021/10/08 11:08:13;;;;;;;;;6.67;6.67;;;;;16.67;63.99;102515.28;4965404;28;45540;-83
2021/10/08 11:10:41;;;;;;;;;8.67;8.00;;;;;16.65;63.64;102509.94;5042073;28;47190;-81